createdAt,value
2024-01-24T00:00:57.369Z,4.05
2024-01-24T00:06:27.015Z,3.99
2024-01-24T00:11:36.844Z,3.96
2024-01-24T00:16:47.056Z,3.91
2024-01-24T00:21:57.563Z,3.91
2024-01-24T00:27:07.925Z,3.91
2024-01-24T00:32:17.561Z,3.87
2024-01-24T00:37:27.640Z,3.80
2024-01-24T00:42:37.490Z,3.74
2024-01-24T00:47:47.238Z,3.66
2024-01-24T00:52:57.320Z,3.59
2024-01-24T00:58:07.295Z,3.55
2024-01-24T01:03:17.143Z,3.55
2024-01-24T01:08:27.134Z,3.58
2024-01-24T01:13:37.140Z,3.58
2024-01-24T01:18:46.923Z,3.55
2024-01-24T01:23:56.890Z,3.50
2024-01-24T01:29:07.209Z,3.44
2024-01-24T01:34:17.413Z,3.35
2024-01-24T01:39:27.201Z,3.25
2024-01-24T01:44:43.966Z,3.18
2024-01-24T01:49:54.751Z,3.11
2024-01-24T01:55:05.824Z,3.03
2024-01-24T02:00:22.533Z,2.99
2024-01-24T02:05:34.114Z,3.01
2024-01-24T02:10:45.776Z,3.05
2024-01-24T02:15:55.724Z,3.08
2024-01-24T02:21:06.888Z,3.10
2024-01-24T02:26:16.792Z,3.14
2024-01-24T02:31:26.695Z,3.18
2024-01-24T02:36:36.352Z,3.21
2024-01-24T02:41:47.439Z,3.17
2024-01-24T02:46:57.829Z,3.13
2024-01-24T02:52:08.428Z,3.15
2024-01-24T02:57:18.299Z,3.16
2024-01-24T03:02:28.012Z,3.18
2024-01-24T03:07:37.987Z,3.20
2024-01-24T03:12:47.604Z,3.19
2024-01-24T03:17:57.316Z,3.18
2024-01-24T03:23:07.205Z,3.19
2024-01-24T03:28:17.033Z,3.20
2024-01-24T03:33:26.715Z,3.23
2024-01-24T03:38:36.568Z,3.25
2024-01-24T03:43:46.668Z,3.26
2024-01-24T03:48:56.684Z,3.28
2024-01-24T03:54:06.722Z,3.30
2024-01-24T03:59:16.592Z,3.30
2024-01-24T04:04:26.662Z,3.29
2024-01-24T04:09:36.578Z,3.30
2024-01-24T04:14:46.380Z,3.32
2024-01-24T04:19:56.237Z,3.34
2024-01-24T04:25:06.774Z,3.37
2024-01-24T04:30:18.467Z,3.39
2024-01-24T04:35:28.808Z,3.42
2024-01-24T04:40:38.747Z,3.44
2024-01-24T04:45:48.660Z,3.47
2024-01-24T04:50:58.421Z,3.47
2024-01-24T04:56:08.952Z,3.41
2024-01-24T05:01:18.998Z,3.33
2024-01-24T05:06:28.747Z,3.25
2024-01-24T05:11:38.524Z,3.18
2024-01-24T05:16:49.207Z,3.15
2024-01-24T05:21:59.976Z,3.13
2024-01-24T05:27:10.575Z,3.11
2024-01-24T05:32:20.463Z,3.09
2024-01-24T05:37:30.878Z,3.05
2024-01-24T05:42:40.974Z,3.01
2024-01-24T05:47:51.242Z,2.96
2024-01-24T05:53:01.029Z,2.90
2024-01-24T05:58:11.528Z,2.84
2024-01-24T06:03:21.237Z,2.82
2024-01-24T06:08:32.815Z,2.81
2024-01-24T06:13:42.846Z,2.81
2024-01-24T06:18:52.798Z,2.81
2024-01-24T06:24:02.854Z,2.84
2024-01-24T06:29:12.893Z,2.90
2024-01-24T06:34:23.456Z,2.96
2024-01-24T06:39:33.260Z,3.04
2024-01-24T06:44:43.514Z,3.11
2024-01-24T06:49:54.395Z,3.16
2024-01-24T06:55:04.456Z,3.17
2024-01-24T07:00:17.345Z,3.19
2024-01-24T07:05:27.245Z,3.21
2024-01-24T07:10:36.970Z,3.23
2024-01-24T07:15:46.978Z,3.26
2024-01-24T07:20:57.679Z,3.30
2024-01-24T07:26:07.794Z,3.30
2024-01-24T07:31:19.049Z,3.30
2024-01-24T07:36:29.495Z,3.30
2024-01-24T07:41:39.512Z,3.31
2024-01-24T07:46:49.589Z,3.31
2024-01-24T07:51:59.884Z,3.32
2024-01-24T07:57:10.197Z,3.36
2024-01-24T08:02:20.992Z,3.37
2024-01-24T08:07:34.710Z,3.42
2024-01-24T08:12:44.655Z,3.46
2024-01-24T08:17:54.648Z,3.49
2024-01-24T08:23:04.766Z,3.51
2024-01-24T08:28:14.734Z,3.55
2024-01-24T08:33:24.650Z,3.57
2024-01-24T08:38:34.474Z,3.61
2024-01-24T08:43:44.373Z,3.65
2024-01-24T08:48:54.222Z,3.68
2024-01-24T08:54:04.894Z,3.73
2024-01-24T08:59:15.001Z,3.80
2024-01-24T09:04:25.669Z,3.86
2024-01-24T09:09:39.160Z,3.93
2024-01-24T09:14:52.447Z,4.03
2024-01-24T09:20:02.644Z,4.13
2024-01-24T09:25:14.952Z,4.22
2024-01-24T09:30:26.822Z,4.33
2024-01-24T09:35:36.645Z,4.47
2024-01-24T09:40:47.200Z,4.61
2024-01-24T09:45:59.202Z,4.75
2024-01-24T09:51:10.360Z,4.86
2024-01-24T09:56:23.622Z,4.99
2024-01-24T10:01:39.211Z,5.12
2024-01-24T10:06:51.339Z,5.26
2024-01-24T10:12:01.163Z,5.36
2024-01-24T10:17:13.441Z,5.48
2024-01-24T10:22:24.491Z,5.59
2024-01-24T10:27:35.023Z,5.70
2024-01-24T10:32:49.476Z,5.85
2024-01-24T10:38:00.593Z,5.97
2024-01-24T10:43:16.493Z,6.06
2024-01-24T10:48:26.876Z,6.19
2024-01-24T10:53:39.036Z,6.27
2024-01-24T10:58:50.632Z,6.33
2024-01-24T11:04:03.832Z,6.41
2024-01-24T11:09:28.245Z,6.49
2024-01-24T11:14:38.935Z,6.57
2024-01-24T11:19:50.637Z,6.72
2024-01-24T11:25:01.075Z,6.81
2024-01-24T11:30:42.462Z,6.85
2024-01-24T11:35:55.391Z,6.92
2024-01-24T11:41:25.522Z,7.01
2024-01-24T11:46:36.306Z,7.03
2024-01-24T11:51:46.324Z,7.13
2024-01-24T11:56:56.181Z,7.25
2024-01-24T12:02:07.817Z,7.34
2024-01-24T12:07:18.060Z,7.37
2024-01-24T12:12:30.398Z,7.43
2024-01-24T12:17:43.545Z,7.48
2024-01-24T12:22:55.624Z,7.55
2024-01-24T12:28:07.184Z,7.68
2024-01-24T12:33:18.753Z,7.84
2024-01-24T12:38:29.225Z,7.93
2024-01-24T12:43:39.919Z,7.92
2024-01-24T12:48:50.286Z,7.92
2024-01-24T12:54:00.325Z,7.99
2024-01-24T12:59:10.869Z,8.08
2024-01-24T13:04:20.810Z,8.08
2024-01-24T13:09:32.905Z,8.08
2024-01-24T13:14:47.057Z,8.10
2024-01-24T13:19:56.907Z,8.04
2024-01-24T13:25:07.172Z,8.20
2024-01-24T13:30:18.454Z,8.39
2024-01-24T13:35:29.011Z,8.44
2024-01-24T13:40:40.878Z,8.35
2024-01-24T13:45:50.626Z,8.23
2024-01-24T13:51:00.879Z,8.17
2024-01-24T13:56:12.068Z,8.07
2024-01-24T14:01:22.142Z,8.01
2024-01-24T14:06:32.117Z,8.05
2024-01-24T14:11:42.240Z,7.97
2024-01-24T14:16:52.190Z,7.89
2024-01-24T14:22:02.138Z,7.81
2024-01-24T14:27:12.728Z,7.79
2024-01-24T14:32:24.289Z,7.77
2024-01-24T14:37:34.147Z,7.73
2024-01-24T14:42:44.390Z,7.65
2024-01-24T14:47:54.185Z,7.55
2024-01-24T14:53:03.828Z,7.45
2024-01-24T14:58:14.027Z,7.36
2024-01-24T15:03:24.072Z,7.26
2024-01-24T15:08:34.502Z,7.19
2024-01-24T15:13:44.713Z,7.15
2024-01-24T15:18:55.230Z,7.07
2024-01-24T15:24:07.534Z,7.07
2024-01-24T15:29:17.466Z,7.10
2024-01-24T15:34:27.657Z,7.07
2024-01-24T15:39:37.489Z,7.02
2024-01-24T15:44:47.629Z,7.05
2024-01-24T15:49:57.684Z,7.07
2024-01-24T15:55:09.053Z,7.08
2024-01-24T16:00:21.579Z,7.07
2024-01-24T16:05:43.777Z,7.05
2024-01-24T16:10:54.510Z,7.05
2024-01-24T16:16:08.256Z,7.01
2024-01-24T16:21:18.867Z,6.98
2024-01-24T16:26:29.642Z,6.96
2024-01-24T16:31:40.128Z,6.93
2024-01-24T16:36:50.169Z,6.89
2024-01-24T16:42:00.797Z,6.87
2024-01-24T16:47:11.140Z,6.86
2024-01-24T16:52:22.017Z,6.88
2024-01-24T16:57:32.117Z,6.89
2024-01-24T17:02:46.547Z,6.88
2024-01-24T17:08:01.662Z,6.89
2024-01-24T17:13:11.735Z,6.94
2024-01-24T17:18:22.335Z,6.95
2024-01-24T17:23:33.559Z,6.97
2024-01-24T17:28:43.550Z,6.99
2024-01-24T17:33:53.486Z,7.06
2024-01-24T17:39:05.776Z,7.05
2024-01-24T17:44:16.354Z,7.01
2024-01-24T17:49:26.631Z,6.98
2024-01-24T17:54:36.651Z,6.95
2024-01-24T17:59:46.723Z,6.91
2024-01-24T18:04:56.568Z,6.87
2024-01-24T18:10:07.018Z,6.85
2024-01-24T18:15:18.517Z,6.84
2024-01-24T18:20:31.533Z,6.80
2024-01-24T18:25:41.362Z,6.78
2024-01-24T18:30:53.624Z,6.76
2024-01-24T18:36:05.021Z,6.75
2024-01-24T18:41:20.240Z,6.79
2024-01-24T18:46:30.641Z,6.78
2024-01-24T18:51:40.476Z,6.76
2024-01-24T18:56:50.221Z,6.75
2024-01-24T19:02:01.222Z,6.74
2024-01-24T19:07:11.649Z,6.72
2024-01-24T19:12:21.558Z,6.68
2024-01-24T19:17:31.519Z,6.66
2024-01-24T19:22:41.636Z,6.66
2024-01-24T19:27:51.736Z,6.70
2024-01-24T19:33:01.698Z,6.70
2024-01-24T19:38:13.072Z,6.70
2024-01-24T19:43:22.955Z,6.69
2024-01-24T19:48:33.311Z,6.70
2024-01-24T19:53:43.281Z,6.70
2024-01-24T19:58:53.558Z,6.70
2024-01-24T20:04:03.495Z,6.73
2024-01-24T20:09:14.508Z,6.79
2024-01-24T20:14:24.499Z,6.79
2024-01-24T20:19:34.771Z,6.79
2024-01-24T20:24:44.523Z,6.79
2024-01-24T20:29:54.455Z,6.76
2024-01-24T20:35:04.988Z,6.72
2024-01-24T20:40:16.236Z,6.68
2024-01-24T20:45:26.497Z,6.62
2024-01-24T20:50:37.863Z,6.55
2024-01-24T20:55:47.842Z,6.49
2024-01-24T21:00:57.501Z,6.45
2024-01-24T21:06:08.980Z,6.41
2024-01-24T21:11:19.330Z,6.38
2024-01-24T21:16:29.406Z,6.37
2024-01-24T21:21:39.502Z,6.34
2024-01-24T21:26:49.595Z,6.31
2024-01-24T21:31:59.851Z,6.30
2024-01-24T21:37:09.697Z,6.27
2024-01-24T21:42:20.005Z,6.26
2024-01-24T21:47:30.053Z,6.23
2024-01-24T21:52:39.974Z,6.20
2024-01-24T21:57:52.812Z,6.19
2024-01-24T22:03:02.658Z,6.23
2024-01-24T22:08:18.485Z,6.23
2024-01-24T22:13:28.811Z,6.21
2024-01-24T22:18:44.459Z,6.20
2024-01-24T22:23:58.401Z,6.35
2024-01-24T22:29:10.581Z,6.40
2024-01-24T22:34:20.527Z,6.41
2024-01-24T22:39:30.556Z,6.30
2024-01-24T22:44:41.841Z,6.24
2024-01-24T22:49:51.797Z,6.21
2024-01-24T22:55:02.516Z,6.20
2024-01-24T23:00:15.849Z,6.20
2024-01-24T23:05:25.740Z,6.16
2024-01-24T23:10:35.973Z,6.18
2024-01-24T23:15:46.195Z,6.16
2024-01-24T23:20:56.090Z,6.13
2024-01-24T23:26:06.160Z,6.14
2024-01-24T23:31:16.825Z,6.08
2024-01-24T23:36:26.986Z,5.99
2024-01-24T23:41:39.894Z,5.95
2024-01-24T23:46:49.678Z,5.94
2024-01-24T23:51:59.534Z,5.92
2024-01-24T23:57:09.826Z,5.91
